Time;durP1;ratioP1;P1;durP2;ratioP2;P2;SDS_P1;SDS_P2;PMS_P1;PMS_P2;Temp;Humidity;BMP_temperature;BMP_pressure;BME280_temperature;BME280_humidity;BME280_pressure;Samples;Min_cycle;Max_cycle;Signal;HPM_P1;HPM_P2
2022/02/24 00:00:48;;;;;;;35.95;9.00;;;;;;;0.88;100.00;98502.94;5009418;28;20132;-57
2022/02/24 00:03:13;;;;;;;29.67;9.07;;;;;;;0.87;100.00;98509.81;5009433;28;20148;-58
2022/02/24 00:05:38;;;;;;;42.25;9.55;;;;;;;0.78;100.00;98502.03;5014589;28;20483;-58
2022/02/24 00:08:04;;;;;;;33.58;8.75;;;;;;;0.71;100.00;98501.13;5007672;28;20084;-57
2022/02/24 00:10:29;;;;;;;39.50;9.55;;;;;;;0.77;100.00;98492.59;5008717;28;20040;-57
2022/02/24 00:12:55;;;;;;;37.65;8.68;;;;;;;0.73;100.00;98491.72;5007743;28;20033;-57
2022/02/24 00:15:20;;;;;;;41.05;9.70;;;;;;;0.58;100.00;98487.34;5007834;28;20116;-57
2022/02/24 00:17:45;;;;;;;44.45;10.13;;;;;;;0.53;100.00;98483.91;5004749;28;20033;-58
2022/02/24 00:20:11;;;;;;;37.03;9.50;;;;;;;0.63;100.00;98486.56;5006654;28;20032;-58
2022/02/24 00:22:37;;;;;;;35.03;9.35;;;;;;;0.57;100.00;98483.09;5006950;28;20110;-59
2022/02/24 00:25:03;;;;;;;37.85;10.23;;;;;;;0.40;100.00;98476.97;5008870;28;20670;-57
2022/02/24 00:27:29;;;;;;;34.92;8.57;;;;;;;0.31;100.00;98466.63;5008125;28;20743;-58
2022/02/24 00:29:54;;;;;;;36.25;8.60;;;;;;;0.52;100.00;98479.63;5006869;28;20061;-58
2022/02/24 00:32:20;;;;;;;31.23;7.78;;;;;;;0.33;100.00;98483.78;5008512;28;20030;-58
2022/02/24 00:34:45;;;;;;;48.00;9.85;;;;;;;0.56;100.00;98489.06;5007017;28;20627;-58
2022/02/24 00:37:10;;;;;;;37.85;9.85;;;;;;;0.70;100.00;98481.47;5005688;28;20038;-57
2022/02/24 00:39:36;;;;;;;32.67;9.35;;;;;;;0.66;100.00;98483.97;5007999;28;20034;-56
2022/02/24 00:42:01;;;;;;;33.63;8.85;;;;;;;0.50;100.00;98468.50;5008876;28;20038;-58
2022/02/24 00:44:27;;;;;;;37.95;9.20;;;;;;;0.22;100.00;98461.44;5008071;28;20921;-58
2022/02/24 00:46:52;;;;;;;28.08;8.07;;;;;;;0.45;100.00;98461.63;5007146;28;20041;-57
2022/02/24 00:49:18;;;;;;;38.35;9.00;;;;;;;0.50;100.00;98459.94;5006714;28;20029;-57
2022/02/24 00:51:43;;;;;;;40.78;9.07;;;;;;;0.65;100.00;98451.47;5006588;28;20048;-57
2022/02/24 00:54:10;;;;;;;43.35;9.82;;;;;;;0.53;100.00;98454.81;5007618;28;21065;-59
2022/02/24 00:56:35;;;;;;;38.67;9.32;;;;;;;0.68;100.00;98451.47;5004272;28;20083;-59
2022/02/24 00:59:00;;;;;;;41.75;9.32;;;;;;;0.72;100.00;98448.09;5008950;28;20029;-58
2022/02/24 01:01:26;;;;;;;44.78;9.98;;;;;;;0.72;100.00;98438.66;5006769;28;20037;-58
2022/02/24 01:03:51;;;;;;;40.30;9.77;;;;;;;0.65;100.00;98436.91;5006103;28;20502;-58
2022/02/24 01:06:17;;;;;;;37.03;9.68;;;;;;;0.65;100.00;98430.94;5006206;28;20068;-59
2022/02/24 01:08:42;;;;;;;33.70;8.70;;;;;;;0.54;100.00;98421.44;5006874;28;20141;-59
2022/02/24 01:11:08;;;;;;;33.20;8.32;;;;;;;0.45;100.00;98412.84;5007477;28;20033;-57
2022/02/24 01:13:33;;;;;;;33.53;8.85;;;;;;;0.54;100.00;98418.88;5006217;28;20079;-57
2022/02/24 01:15:59;;;;;;;37.28;8.93;;;;;;;0.42;100.00;98411.09;5005201;28;20438;-57
2022/02/24 01:18:27;;;;;;;37.90;9.02;;;;;;;0.47;100.00;98406.84;5006701;28;20029;-59
2022/02/24 01:20:52;;;;;;;34.35;8.48;;;;;;;0.54;100.00;98406.06;5008260;28;20109;-58
2022/02/24 01:23:18;;;;;;;40.85;9.02;;;;;;;0.69;100.00;98412.13;5007452;28;20527;-57
2022/02/24 01:25:43;;;;;;;30.60;7.95;;;;;;;0.37;100.00;98415.38;5007216;28;20878;-57
2022/02/24 01:28:09;;;;;;;34.58;8.82;;;;;;;0.58;100.00;98414.63;5008325;28;20641;-57
2022/02/24 01:30:34;;;;;;;33.63;8.52;;;;;;;0.44;100.00;98404.28;5005397;28;20037;-59
2022/02/24 01:32:59;;;;;;;34.50;8.70;;;;;;;0.54;100.00;98394.94;5006225;28;20041;-57
2022/02/24 01:35:25;;;;;;;36.13;9.02;;;;;;;0.45;100.00;98393.16;5006089;28;20121;-58
2022/02/24 01:37:50;;;;;;;36.53;9.05;;;;;;;0.50;100.00;98396.63;5009665;28;20096;-59
2022/02/24 01:40:16;;;;;;;32.67;8.07;;;;;;;0.68;100.00;98392.41;5006664;28;20059;-58
2022/02/24 01:42:43;;;;;;;32.05;8.52;;;;;;;0.61;100.00;98382.97;5007138;28;20025;-57
2022/02/24 01:45:09;;;;;;;33.83;8.48;;;;;;;0.34;100.00;98376.84;5004979;28;20037;-57
2022/02/24 01:47:35;;;;;;;31.25;8.10;;;;;;;0.32;100.00;98381.13;5009092;28;20013;-57
2022/02/24 01:50:02;;;;;;;39.15;9.10;;;;;;;0.44;100.00;98365.81;5006650;28;20031;-59
2022/02/24 01:52:28;;;;;;;33.85;8.23;;;;;;;0.51;100.00;98367.50;5006055;28;20038;-58
2022/02/24 01:54:53;;;;;;;38.72;8.73;;;;;;;0.56;100.00;98365.00;5007291;28;20048;-58
2022/02/24 01:57:19;;;;;;;36.25;8.73;;;;;;;0.75;100.00;98356.53;5006759;28;20068;-58
2022/02/24 01:59:46;;;;;;;34.20;8.02;;;;;;;0.73;100.00;98353.06;5006632;28;20447;-58
2022/02/24 02:02:13;;;;;;;34.60;8.40;;;;;;;0.53;100.00;98349.56;5004902;28;20034;-57
2022/02/24 02:04:38;;;;;;;40.67;8.70;;;;;;;0.76;100.00;98347.09;5007049;28;20036;-58
2022/02/24 02:07:04;;;;;;;37.78;8.43;;;;;;;0.30;100.00;98346.91;5004329;28;20029;-57
2022/02/24 02:09:31;;;;;;;35.15;8.65;;;;;;;0.49;100.00;98348.69;5009083;28;20416;-57
2022/02/24 02:11:57;;;;;;;36.05;8.70;;;;;;;0.43;100.00;98343.53;5009544;28;20873;-59
2022/02/24 02:14:22;;;;;;;36.67;8.68;;;;;;;0.64;100.00;98337.63;5012136;28;20041;-58
2022/02/24 02:16:50;;;;;;;35.22;8.85;;;;;;;0.82;100.00;98331.72;5010413;28;20045;-57
2022/02/24 02:19:17;;;;;;;30.60;8.02;;;;;;;0.80;100.00;98323.16;5009867;28;20140;-58
2022/02/24 02:21:43;;;;;;;36.03;8.60;;;;;;;0.68;100.00;98317.97;5009922;28;20029;-58
2022/02/24 02:24:09;;;;;;;28.10;7.40;;;;;;;0.55;100.00;98317.06;5008533;28;20508;-58
2022/02/24 02:26:35;;;;;;;35.13;8.05;;;;;;;0.62;100.00;98316.22;5010114;28;20040;-58
2022/02/24 02:29:02;;;;;;;29.90;7.85;;;;;;;0.54;100.00;98316.22;5008639;28;20025;-57
2022/02/24 02:31:28;;;;;;;35.00;8.30;;;;;;;0.72;100.00;98319.72;5008075;28;20415;-59
2022/02/24 02:34:07;;;;;;;34.50;8.60;;;;;;;0.69;100.00;98319.69;5009797;28;20691;-57
2022/02/24 02:36:35;;;;;;;27.48;7.22;;;;;;;0.34;100.00;98316.13;5008490;28;20037;-58
2022/02/24 02:39:00;;;;;;;38.35;8.10;;;;;;;0.25;100.00;98310.09;5010153;28;20624;-57
2022/02/24 02:41:30;;;;;;;33.28;8.07;;;;;;;0.53;100.00;98300.78;5008113;28;20045;-58
2022/02/24 02:43:56;;;;;;;42.95;8.60;;;;;;;0.66;100.00;98299.13;5008091;28;20054;-58
2022/02/24 02:46:22;;;;;;;35.15;8.27;;;;;;;0.79;100.00;98300.91;5009926;28;20034;-58
2022/02/24 02:48:47;;;;;;;33.55;7.80;;;;;;;0.81;100.00;98294.06;5010531;28;20040;-59
2022/02/24 02:51:13;;;;;;;31.58;8.13;;;;;;;0.76;100.00;98295.75;5009059;28;20046;-58
2022/02/24 02:53:38;;;;;;;32.15;7.85;;;;;;;0.96;100.00;98283.81;5008189;28;20045;-57
2022/02/24 02:56:04;;;;;;;32.22;7.75;;;;;;;1.00;100.00;98278.69;5009825;28;20049;-57
2022/02/24 02:58:29;;;;;;;38.20;8.18;;;;;;;0.77;100.00;98276.91;5009102;28;20783;-59
2022/02/24 03:00:54;;;;;;;38.42;7.90;;;;;;;0.88;100.00;98264.97;5006858;28;20037;-57
2022/02/24 03:03:24;;;;;;;40.47;8.35;;;;;;;0.94;100.00;98259.84;5011703;28;20028;-59
2022/02/24 03:05:50;;;;;;;35.50;7.55;;;;;;;0.63;100.00;98268.34;5008311;28;20042;-59
2022/02/24 03:08:15;;;;;;;37.53;7.45;;;;;;;0.54;100.00;98264.88;5009259;28;20036;-59
2022/02/24 03:10:41;;;;;;;36.88;7.90;;;;;;;0.37;100.00;98262.25;5009343;28;20037;-57
2022/02/24 03:13:06;;;;;;;39.70;8.38;;;;;;;-0.08;100.00;98262.88;5009256;28;20026;-58
2022/02/24 03:15:31;;;;;;;33.53;8.23;;;;;;;0.34;100.00;98251.13;5009317;28;20117;-58
2022/02/24 03:17:56;;;;;;;31.83;7.50;;;;;;;0.37;100.00;98244.28;5009527;28;20033;-57
2022/02/24 03:20:22;;;;;;;33.00;7.60;;;;;;;0.38;100.00;98242.56;5008342;28;20026;-58
2022/02/24 03:22:47;;;;;;;30.55;7.90;;;;;;;0.49;100.00;98230.63;5011151;28;20030;-58
2022/02/24 03:25:13;;;;;;;37.88;8.55;;;;;;;0.41;100.00;98236.59;5009374;28;20017;-56
2022/02/24 03:27:38;;;;;;;34.28;8.05;;;;;;;0.15;100.00;98230.53;5009976;28;20037;-58
2022/02/24 03:30:05;;;;;;;28.50;7.47;;;;;;;0.24;100.00;98231.41;5009609;28;20112;-58
2022/02/24 03:32:30;;;;;;;32.13;7.82;;;;;;;0.28;100.00;98228.00;5008484;28;20033;-57
2022/02/24 03:34:55;;;;;;;37.08;8.32;;;;;;;0.24;100.00;98213.44;5008754;28;20032;-57
2022/02/24 03:37:21;;;;;;;31.05;7.45;;;;;;;0.34;100.00;98226.31;5008392;28;20046;-58
2022/02/24 03:39:48;;;;;;;37.72;8.50;;;;;;;0.53;100.00;98222.09;5007567;28;20022;-58
2022/02/24 03:42:14;;;;;;;36.40;7.88;;;;;;;0.45;100.00;98217.78;5006384;28;20046;-57
2022/02/24 03:44:39;;;;;;;36.80;7.88;;;;;;;0.31;100.00;98210.91;5011050;28;20045;-58
2022/02/24 03:47:06;;;;;;;39.15;8.15;;;;;;;0.32;100.00;98212.63;5009888;28;20046;-57
2022/02/24 03:49:31;;;;;;;33.55;7.90;;;;;;;0.21;100.00;98209.16;5008148;28;20084;-60
2022/02/24 03:51:56;;;;;;;26.10;7.30;;;;;;;0.41;100.00;98206.66;5008191;28;20638;-58
2022/02/24 03:54:22;;;;;;;35.67;7.68;;;;;;;0.34;100.00;98200.66;5007749;28;20037;-58
2022/02/24 03:56:47;;;;;;;36.40;7.32;;;;;;;0.40;100.00;98194.66;5007302;28;20823;-59
2022/02/24 03:59:13;;;;;;;41.08;7.93;;;;;;;0.24;100.00;98198.03;5009187;28;20728;-58
2022/02/24 04:01:38;;;;;;;34.92;7.80;;;;;;;0.22;100.00;98190.38;5008415;28;20053;-58
2022/02/24 04:04:03;;;;;;;37.58;7.88;;;;;;;0.36;100.00;98188.66;5009551;28;20535;-59
2022/02/24 04:06:29;;;;;;;40.08;8.60;;;;;;;0.62;100.00;98189.59;5010524;28;20042;-59
2022/02/24 04:08:54;;;;;;;36.05;7.75;;;;;;;0.45;100.00;98187.84;5007746;28;20025;-58
2022/02/24 04:11:20;;;;;;;31.77;7.72;;;;;;;0.24;100.00;98177.50;5006080;28;20893;-57
2022/02/24 04:13:46;;;;;;;36.97;7.82;;;;;;;0.43;100.00;98181.84;5007122;28;20081;-57
2022/02/24 04:16:11;;;;;;;31.52;7.30;;;;;;;0.81;100.00;98175.94;5008899;28;20038;-57
2022/02/24 04:18:37;;;;;;;30.85;7.18;;;;;;;0.70;100.00;98167.34;5006723;28;20025;-59
2022/02/24 04:21:02;;;;;;;35.25;7.88;;;;;;;0.92;100.00;98179.38;5007893;28;20037;-58
2022/02/24 04:23:28;;;;;;;34.53;7.55;;;;;;;0.63;100.00;98168.22;5008998;28;20519;-58
2022/02/24 04:25:53;;;;;;;29.83;7.07;;;;;;;0.47;100.00;98170.75;5007111;28;20033;-58
2022/02/24 04:28:18;;;;;;;36.38;7.90;;;;;;;0.72;100.00;98165.66;5009343;28;20586;-57
2022/02/24 04:30:44;;;;;;;28.77;7.25;;;;;;;0.52;100.00;98166.47;5008022;28;20719;-58
2022/02/24 04:33:09;;;;;;;33.30;7.47;;;;;;;0.99;100.00;98169.09;5008675;28;20731;-58
2022/02/24 04:35:35;;;;;;;33.63;7.35;;;;;;;0.79;100.00;98167.38;5005733;28;20694;-59
2022/02/24 04:38:00;;;;;;;28.65;6.70;;;;;;;0.95;100.00;98165.66;5006469;28;20029;-57
2022/02/24 04:40:26;;;;;;;28.23;6.78;;;;;;;1.27;100.00;98160.50;5007560;28;20104;-57
2022/02/24 04:42:51;;;;;;;29.13;7.82;;;;;;;1.12;100.00;98161.38;5007273;28;20021;-58
2022/02/24 04:45:16;;;;;;;22.38;6.60;;;;;;;1.53;100.00;98157.03;5008861;28;20037;-56
2022/02/24 04:47:42;;;;;;;27.42;7.00;;;;;;;1.56;100.00;98157.00;5006232;28;20033;-57
2022/02/24 04:50:10;;;;;;;28.35;6.93;;;;;;;1.12;100.00;98152.78;5006781;28;20021;-58
2022/02/24 04:52:36;;;;;;;24.00;6.78;;;;;;;1.30;100.00;98157.06;5005633;28;20032;-57
2022/02/24 04:55:04;;;;;;;26.52;7.03;;;;;;;1.25;100.00;98161.34;5007563;28;20199;-59
2022/02/24 04:57:30;;;;;;;24.70;6.57;;;;;;;1.03;100.00;98156.25;5008539;28;20058;-59
2022/02/24 04:59:55;;;;;;;23.55;6.32;;;;;;;1.37;100.00;98160.50;5007571;28;20022;-57
2022/02/24 05:02:21;;;;;;;25.35;6.38;;;;;;;1.40;100.00;98160.47;5008506;28;20041;-58
2022/02/24 05:04:47;;;;;;;20.80;6.30;;;;;;;1.27;100.00;98165.66;5008659;28;20033;-57
2022/02/24 05:07:12;;;;;;;26.60;7.50;;;;;;;1.44;100.00;98157.91;5007414;28;20027;-57
2022/02/24 05:09:39;;;;;;;26.95;6.60;;;;;;;1.23;100.00;98157.94;5006890;28;20052;-57
2022/02/24 05:12:05;;;;;;;31.48;7.47;;;;;;;1.43;100.00;98155.34;5007880;28;20029;-57
2022/02/24 05:14:31;;;;;;;28.73;7.28;;;;;;;1.38;100.00;98157.03;5006910;28;20025;-57
2022/02/24 05:16:56;;;;;;;26.00;6.88;;;;;;;1.17;100.00;98153.66;5005560;28;20042;-58
2022/02/24 05:19:22;;;;;;;30.33;7.65;;;;;;;1.50;100.00;98154.47;5007303;28;20031;-57
2022/02/24 05:21:47;;;;;;;29.35;7.63;;;;;;;1.52;100.00;98142.47;5004654;28;20412;-57
2022/02/24 05:24:12;;;;;;;25.85;7.85;;;;;;;1.65;100.00;98141.56;5006482;28;20025;-58
2022/02/24 05:26:38;;;;;;;26.50;7.32;;;;;;;1.63;100.00;98138.13;5004369;28;20550;-59
2022/02/24 05:29:04;;;;;;;21.70;6.05;;;;;;;1.34;100.00;98136.50;5006366;28;20086;-58
2022/02/24 05:31:29;;;;;;;28.05;7.30;;;;;;;1.29;100.00;98132.25;5007143;28;20133;-59
2022/02/24 05:33:54;;;;;;;25.73;6.88;;;;;;;1.23;100.00;98138.25;5006666;28;20444;-60
2022/02/24 05:36:20;;;;;;;25.67;6.63;;;;;;;1.45;100.00;98130.47;5002497;28;20034;-60
2022/02/24 05:38:45;;;;;;;30.88;7.53;;;;;;;0.96;100.00;98129.69;5004719;28;20025;-59
2022/02/24 05:41:10;;;;;;;29.70;6.22;;;;;;;1.06;100.00;98134.84;5005351;28;20041;-59
2022/02/24 05:43:36;;;;;;;28.80;8.20;;;;;;;1.09;100.00;98134.84;5005996;28;20475;-59
2022/02/24 05:46:01;;;;;;;29.83;8.73;;;;;;;1.13;100.00;98127.09;5006520;28;20040;-58
2022/02/24 05:48:26;;;;;;;32.50;8.30;;;;;;;0.76;100.00;98131.41;5006926;28;20029;-58
2022/02/24 05:50:52;;;;;;;32.42;7.72;;;;;;;1.13;100.00;98133.97;5004886;28;20029;-60
2022/02/24 05:53:17;;;;;;;32.20;8.05;;;;;;;0.92;100.00;98133.13;5003386;28;20026;-61
2022/02/24 05:55:42;;;;;;;34.63;8.40;;;;;;;1.11;100.00;98127.97;5003554;28;20041;-59
2022/02/24 05:58:08;;;;;;;32.13;7.72;;;;;;;1.10;100.00;98133.97;5003257;28;20022;-59
2022/02/24 06:00:34;;;;;;;22.25;6.72;;;;;;;1.29;100.00;98133.09;5004421;28;20034;-59
2022/02/24 06:02:59;;;;;;;24.00;7.15;;;;;;;1.23;100.00;98138.25;5002030;28;20034;-57
2022/02/24 06:05:25;;;;;;;29.65;6.88;;;;;;;1.05;100.00;98128.84;5009909;28;20065;-59
2022/02/24 06:07:50;;;;;;;25.67;6.88;;;;;;;1.56;100.00;98135.59;5008869;28;20443;-58
2022/02/24 06:10:16;;;;;;;21.27;6.00;;;;;;;1.57;100.00;98132.19;5010804;28;20723;-58
2022/02/24 06:12:41;;;;;;;22.08;5.68;;;;;;;1.71;100.00;98136.41;5009220;28;20022;-59
2022/02/24 06:15:08;;;;;;;22.20;6.28;;;;;;;1.58;100.00;98129.59;5008889;28;20109;-59
2022/02/24 06:17:35;;;;;;;24.50;5.97;;;;;;;1.64;100.00;98134.72;5008940;28;20029;-58
2022/02/24 06:20:00;;;;;;;26.45;6.50;;;;;;;0.95;100.00;98133.13;5005104;28;20071;-59
2022/02/24 06:22:26;;;;;;;23.42;6.07;;;;;;;1.60;100.00;98129.56;5008669;28;20038;-58
2022/02/24 06:24:51;;;;;;;25.30;6.30;;;;;;;1.76;100.00;98122.69;5009676;28;20038;-59
2022/02/24 06:27:20;;;;;;;24.15;6.35;;;;;;;1.67;100.00;98119.28;5010012;28;20030;-59
2022/02/24 06:29:46;;;;;;;19.33;5.80;;;;;;;1.58;100.00;98110.72;5009371;28;20505;-58
2022/02/24 06:32:13;;;;;;;17.52;5.88;;;;;;;2.09;100.00;98116.53;5006946;28;20038;-59
2022/02/24 06:34:42;;;;;;;22.00;5.90;;;;;;;1.81;100.00;98100.38;5006967;28;20835;-58
2022/02/24 06:37:08;;;;;;;19.92;5.88;;;;;;;1.87;100.00;98106.31;5008899;28;20816;-59
2022/02/24 06:39:34;;;;;;;22.17;6.30;;;;;;;1.88;100.00;98102.06;5007284;28;20025;-57
2022/02/24 06:41:59;;;;;;;20.60;6.00;;;;;;;1.82;100.00;98102.06;5008919;28;20056;-58
2022/02/24 06:44:25;;;;;;;17.38;4.72;;;;;;;2.11;100.00;98095.09;5008465;28;20029;-57
2022/02/24 06:46:50;;;;;;;10.73;3.33;;;;;;;4.78;100.00;98113.69;5007024;28;20038;-58
2022/02/24 06:49:16;;;;;;;18.55;6.35;;;;;;;3.02;100.00;98096.13;5010133;28;20025;-57
2022/02/24 06:51:41;;;;;;;18.55;6.07;;;;;;;3.02;100.00;98085.81;5010153;28;20157;-57
2022/02/24 06:54:06;;;;;;;21.70;6.85;;;;;;;3.02;100.00;98076.34;5007308;28;20026;-58
2022/02/24 06:56:32;;;;;;;24.23;7.03;;;;;;;2.82;100.00;98084.25;5009650;28;20690;-57
2022/02/24 06:58:57;;;;;;;24.00;6.40;;;;;;;2.73;100.00;98079.19;5013549;28;20104;-58
2022/02/24 07:01:23;;;;;;;21.30;6.35;;;;;;;2.16;100.00;98071.03;5011790;28;20034;-58
2022/02/24 07:03:48;;;;;;;22.90;6.35;;;;;;;2.87;100.00;98077.34;5012594;28;20610;-58
2022/02/24 07:06:13;;;;;;;18.40;5.82;;;;;;;2.84;100.00;98079.94;5014444;28;20073;-57
2022/02/24 07:08:39;;;;;;;18.90;5.78;;;;;;;2.89;100.00;98080.75;5014393;28;20478;-56
2022/02/24 07:11:05;;;;;;;19.20;6.00;;;;;;;3.36;100.00;98080.31;5013956;28;20041;-58
2022/02/24 07:13:30;;;;;;;19.27;5.75;;;;;;;3.37;100.00;98089.75;5010527;28;20022;-57
2022/02/24 07:15:56;;;;;;;21.70;6.32;;;;;;;3.39;100.00;98085.44;5011066;28;20474;-57
2022/02/24 07:18:21;;;;;;;22.38;6.40;;;;;;;2.69;100.00;98074.94;5010740;28;20041;-57
2022/02/24 07:20:47;;;;;;;15.95;5.20;;;;;;;2.92;100.00;98072.16;5013052;28;20041;-58
2022/02/24 07:23:13;;;;;;;17.88;5.78;;;;;;;3.33;100.00;98070.91;5011453;28;20021;-57
2022/02/24 07:25:39;;;;;;;19.65;5.90;;;;;;;3.61;100.00;98068.84;5012048;28;20542;-58
2022/02/24 07:28:05;;;;;;;23.55;5.68;;;;;;;3.35;100.00;98063.16;5012558;28;20022;-58
2022/02/24 07:30:30;;;;;;;21.38;6.00;;;;;;;3.64;100.00;98060.22;5009509;28;20026;-57
2022/02/24 07:32:55;;;;;;;19.30;6.00;;;;;;;4.03;100.00;98058.84;5013033;28;20104;-56
2022/02/24 07:35:21;;;;;;;23.42;6.32;;;;;;;4.01;100.00;98057.16;5011490;28;20037;-58
2022/02/24 07:37:46;;;;;;;21.50;6.47;;;;;;;3.60;100.00;98054.25;5011477;28;20022;-58
2022/02/24 07:40:12;;;;;;;18.17;5.57;;;;;;;3.91;100.00;98053.00;5011589;28;20033;-57
2022/02/24 07:42:37;;;;;;;23.00;6.43;;;;;;;3.69;100.00;98037.78;5012805;28;20764;-58
2022/02/24 07:45:04;;;;;;;19.20;6.32;;;;;;;5.00;100.00;98043.56;5001813;28;20033;-55
2022/02/24 07:47:30;;;;;;;19.88;6.55;;;;;;;5.97;100.00;98026.13;5012240;28;20504;-59
2022/02/24 07:49:55;;;;;;;19.35;6.18;;;;;;;6.05;100.00;98023.38;5010189;28;20113;-58
2022/02/24 07:52:22;;;;;;;18.23;6.40;;;;;;;7.12;100.00;98017.28;5011477;28;20521;-59
2022/02/24 07:54:48;;;;;;;21.52;6.28;;;;;;;8.15;100.00;98005.69;5012408;28;20030;-57
2022/02/24 07:57:13;;;;;;;18.65;6.10;;;;;;;8.43;100.00;98010.88;5009269;28;20569;-58
2022/02/24 07:59:38;;;;;;;18.23;6.20;;;;;;;9.73;100.00;98007.25;5011161;28;20036;-59
2022/02/24 08:02:04;;;;;;;20.17;6.05;;;;;;;9.18;100.00;98010.94;5010120;28;20033;-58
2022/02/24 08:04:29;;;;;;;21.20;6.32;;;;;;;10.64;100.00;98008.94;5011980;28;20434;-59
2022/02/24 08:06:54;;;;;;;16.27;5.97;;;;;;;11.13;100.00;98014.72;5008397;28;20041;-58
2022/02/24 08:09:20;;;;;;;15.27;6.47;;;;;;;12.05;100.00;98015.84;5010780;28;20105;-58
2022/02/24 08:12:38;;;;;;;15.57;5.78;;;;;;;12.43;100.00;98005.34;5010063;28;20125;-58
2022/02/24 08:14:31;;;;;;;21.63;5.82;;;;;;;13.19;89.14;98005.03;5010403;28;20148;-59
2022/02/24 08:16:56;;;;;;;15.32;5.60;;;;;;;13.54;80.35;98004.16;5009767;28;20063;-58
2022/02/24 08:19:21;;;;;;;18.25;5.47;;;;;;;14.41;71.32;98007.25;5012573;28;20112;-58
2022/02/24 08:21:46;;;;;;;13.63;4.55;;;;;;;12.05;76.11;97994.94;5011934;28;20408;-58
2022/02/24 08:24:12;;;;;;;13.43;5.20;;;;;;;11.58;77.39;97995.34;5010241;28;20037;-59
2022/02/24 08:26:37;;;;;;;14.90;5.55;;;;;;;11.77;80.81;98006.63;5012918;28;20555;-61
2022/02/24 08:29:02;;;;;;;18.05;5.40;;;;;;;11.60;88.03;98001.34;5010249;28;20036;-58
2022/02/24 08:31:28;;;;;;;14.93;5.05;;;;;;;12.50;78.47;97995.44;5008663;28;20045;-58
2022/02/24 08:33:54;;;;;;;19.15;5.43;;;;;;;12.20;81.62;97993.34;5012287;28;20081;-59
2022/02/24 08:36:19;;;;;;;14.75;5.20;;;;;;;11.26;83.14;97988.91;5010315;28;20045;-59
2022/02/24 08:38:45;;;;;;;13.75;5.70;;;;;;;11.63;87.15;97989.88;5010577;28;20018;-59
2022/02/24 08:41:10;;;;;;;14.02;6.07;;;;;;;11.25;88.54;97989.81;5009826;28;20544;-59
2022/02/24 08:43:36;;;;;;;14.80;5.90;;;;;;;10.68;100.00;97993.13;5010362;28;20083;-58
2022/02/24 08:46:01;;;;;;;13.32;5.40;;;;;;;11.22;100.00;97988.22;5010022;28;20061;-59
2022/02/24 08:48:26;;;;;;;18.02;5.78;;;;;;;10.88;100.00;97987.06;5009525;28;20112;-58
2022/02/24 08:50:52;;;;;;;12.15;5.20;;;;;;;10.63;100.00;97978.56;5011219;28;20069;-58
2022/02/24 08:53:17;;;;;;;11.63;4.90;;;;;;;10.72;100.00;97970.34;5012486;28;20026;-58
2022/02/24 08:55:42;;;;;;;14.20;5.30;;;;;;;11.13;100.00;97968.56;5009152;28;20070;-59
2022/02/24 08:58:08;;;;;;;16.58;5.70;;;;;;;11.16;100.00;97962.38;5010492;28;20038;-59
2022/02/24 09:00:34;;;;;;;14.82;4.82;;;;;;;11.75;100.00;97966.66;5010024;28;20037;-59
2022/02/24 09:02:59;;;;;;;12.45;4.50;;;;;;;11.79;85.00;97958.69;5011377;28;20281;-59
2022/02/24 09:05:25;;;;;;;13.30;4.50;;;;;;;11.77;81.77;97956.97;5008749;28;20046;-59
2022/02/24 09:07:50;;;;;;;13.15;4.45;;;;;;;12.82;71.36;97954.56;5009292;28;20459;-58
2022/02/24 09:10:15;;;;;;;12.00;4.22;;;;;;;14.34;65.84;97948.19;5009680;28;20467;-60
2022/02/24 09:12:41;;;;;;;14.68;4.63;;;;;;;12.40;73.64;97947.09;5009523;28;20045;-59
2022/02/24 09:15:06;;;;;;;12.57;4.70;;;;;;;14.10;68.89;97942.56;5010917;28;20022;-60
2022/02/24 09:17:32;;;;;;;11.77;4.50;;;;;;;13.09;69.25;97940.97;5009209;28;20025;-59
2022/02/24 09:19:58;;;;;;;14.55;4.32;;;;;;;11.65;75.45;97943.63;5011032;28;20034;-59
2022/02/24 09:22:23;;;;;;;10.45;4.07;;;;;;;13.61;70.27;97937.38;5009119;28;20408;-57
2022/02/24 09:24:49;;;;;;;16.02;5.10;;;;;;;11.79;75.36;97933.41;5010507;28;20109;-60
2022/02/24 09:27:14;;;;;;;11.82;4.70;;;;;;;13.64;68.22;97930.22;5009491;28;20044;-59
2022/02/24 09:29:39;;;;;;;13.45;4.25;;;;;;;13.62;64.93;97929.44;5010760;28;20041;-59
2022/02/24 09:32:06;;;;;;;13.60;4.35;;;;;;;13.40;66.18;97924.53;5011237;28;20041;-59
2022/02/24 09:34:31;;;;;;;11.35;4.72;;;;;;;13.53;66.50;97919.47;5009187;28;20468;-58
2022/02/24 09:36:56;;;;;;;11.70;4.40;;;;;;;12.68;71.22;97910.78;5009810;28;20102;-59
2022/02/24 09:39:22;;;;;;;12.75;4.00;;;;;;;13.71;66.04;97911.50;5011079;28;20460;-59
2022/02/24 09:41:47;;;;;;;12.23;4.82;;;;;;;13.08;71.15;97913.09;5007748;28;20442;-59
2022/02/24 09:44:12;;;;;;;17.50;4.53;;;;;;;13.22;71.19;97900.13;5011135;28;20095;-59
2022/02/24 09:46:40;;;;;;;12.18;4.32;;;;;;;14.36;69.44;97908.75;5009337;28;20072;-60
2022/02/24 09:49:07;;;;;;;11.70;3.95;;;;;;;14.08;64.22;97899.84;5011395;28;20692;-59
2022/02/24 09:51:33;;;;;;;11.93;3.90;;;;;;;14.19;67.24;97901.81;5010064;28;20041;-59
2022/02/24 09:54:00;;;;;;;11.60;3.75;;;;;;;15.49;68.95;97890.56;5009925;28;20061;-59
2022/02/24 09:56:29;;;;;;;9.10;3.70;;;;;;;14.89;70.33;97898.66;5007883;28;20555;-57
2022/02/24 09:58:56;;;;;;;9.88;3.80;;;;;;;14.19;75.08;97896.56;5010123;28;20080;-58
2022/02/24 10:01:22;;;;;;;12.68;4.07;;;;;;;14.77;69.82;97893.19;5008205;28;20209;-58
2022/02/24 10:04:00;;;;;;;10.10;3.85;;;;;;;15.28;64.02;97886.66;5010439;28;20025;-59
2022/02/24 10:06:42;;;;;;;11.98;3.85;;;;;;;14.18;68.71;97882.63;5007086;28;20069;-59
2022/02/24 10:09:10;;;;;;;10.90;3.65;;;;;;;14.39;61.96;97877.91;5009112;28;20057;-60
2022/02/24 10:11:39;;;;;;;9.48;3.60;;;;;;;16.14;60.06;97870.69;5009085;28;20041;-59
2022/02/24 10:14:15;;;;;;;9.38;3.30;;;;;;;17.34;54.59;97862.56;5009316;28;20029;-60
2022/02/24 10:16:59;;;;;;;11.70;3.97;;;;;;;16.35;53.30;97863.16;5007629;28;20120;-59
2022/02/24 10:19:31;;;;;;;11.65;4.30;;;;;;;15.27;58.12;97856.06;5008806;28;20029;-59
2022/02/24 10:22:25;;;;;;;9.65;3.78;;;;;;;14.38;62.22;97852.59;5010555;28;20385;-58
2022/02/24 10:25:06;;;;;;;10.48;4.20;;;;;;;15.35;57.66;97845.94;5009477;28;20056;-59
2022/02/24 10:27:39;;;;;;;11.43;3.53;;;;;;;15.90;67.26;97847.69;5008050;28;20046;-59
2022/02/24 10:30:13;;;;;;;11.23;4.00;;;;;;;15.23;68.11;97839.63;5010909;28;20022;-59
2022/02/24 10:32:46;;;;;;;10.90;3.83;;;;;;;15.30;61.57;97832.22;5013187;28;20535;-58
2022/02/24 10:35:41;;;;;;;11.55;4.20;;;;;;;15.38;61.31;97830.81;5013513;28;20064;-58
2022/02/24 10:38:11;;;;;;;10.13;3.58;;;;;;;15.15;62.62;97819.09;5013437;28;20033;-59
2022/02/24 10:40:47;;;;;;;9.98;3.47;;;;;;;16.97;60.68;97812.44;5012250;28;20041;-59
2022/02/24 10:43:20;;;;;;;10.52;3.88;;;;;;;15.26;66.85;97809.72;5011620;28;20029;-59
2022/02/24 10:46:01;;;;;;;8.82;3.42;;;;;;;14.24;70.65;97810.59;5011201;28;20495;-59
2022/02/24 10:48:29;;;;;;;7.70;3.07;;;;;;;15.12;76.92;97805.31;5013886;28;20063;-59
2022/02/24 10:50:57;;;;;;;9.82;3.13;;;;;;;14.82;82.51;97801.88;5011504;28;20273;-59
2022/02/24 10:53:33;;;;;;;13.35;3.78;;;;;;;15.40;82.92;97791.28;5012756;28;20029;-59
2022/02/24 10:56:10;;;;;;;8.07;3.03;;;;;;;15.23;75.91;97793.19;5012801;28;20053;-57
2022/02/24 10:58:35;;;;;;;8.27;3.35;;;;;;;14.91;69.63;97789.13;5015214;28;20108;-58
2022/02/24 11:01:15;;;;;;;9.30;3.40;;;;;;;16.18;100.00;97782.72;5010322;28;20124;-60
2022/02/24 11:03:46;;;;;;;9.05;3.60;;;;;;;15.59;66.41;97769.91;5014144;28;20137;-58
2022/02/24 11:06:12;;;;;;;9.00;3.63;;;;;;;14.86;94.01;97764.94;5012564;28;20046;-59
2022/02/24 11:08:38;;;;;;;11.02;4.00;;;;;;;14.68;85.67;97767.75;5011875;28;20026;-59
2022/02/24 11:11:05;;;;;;;9.63;3.67;;;;;;;13.84;100.00;97765.72;5011050;28;20029;-59
2022/02/24 11:13:31;;;;;;;8.80;3.58;;;;;;;15.26;100.00;97762.44;5012748;28;20332;-60
2022/02/24 11:15:58;;;;;;;10.05;4.05;;;;;;;13.78;84.94;97752.97;5009730;28;20037;-59
2022/02/24 11:18:24;;;;;;;12.82;3.90;;;;;;;14.65;93.04;97760.91;5011549;28;20033;-59
2022/02/24 11:20:51;;;;;;;10.07;3.80;;;;;;;14.12;78.35;97751.00;5013113;28;20092;-60